createdAt,value
2019-04-10T00:00:44.413Z,12.20
2019-04-10T00:03:25.914Z,12.20
2019-04-10T00:05:45.865Z,12.10
2019-04-10T00:08:14.869Z,12.20
2019-04-10T00:10:44.257Z,12.10
2019-04-10T00:13:14.194Z,12.20
2019-04-10T00:15:43.461Z,12.10
2019-04-10T00:18:13.709Z,12.10
2019-04-10T00:20:43.073Z,12.10
2019-04-10T00:23:13.053Z,12.10
2019-04-10T00:25:43.212Z,12.00
2019-04-10T00:28:12.517Z,12.10
2019-04-10T00:30:41.526Z,12.00
2019-04-10T00:33:10.621Z,12.10
2019-04-10T00:35:39.534Z,12.10
2019-04-10T00:38:09.287Z,12.00
2019-04-10T00:40:38.213Z,12.10
2019-04-10T00:43:07.055Z,12.10
2019-04-10T00:45:36.305Z,12.00
2019-04-10T00:48:05.859Z,12.00
2019-04-10T00:50:34.870Z,11.90
2019-04-10T00:53:04.978Z,11.90
2019-04-10T00:55:35.524Z,11.90
2019-04-10T00:58:05.829Z,11.90
2019-04-10T01:00:36.873Z,11.80
2019-04-10T01:03:07.415Z,11.80
2019-04-10T01:05:37.669Z,11.70
2019-04-10T01:08:06.766Z,11.70
2019-04-10T01:10:36.743Z,11.70
2019-04-10T01:13:05.837Z,11.70
2019-04-10T01:15:34.876Z,11.70
2019-04-10T01:18:04.599Z,11.70
2019-04-10T01:20:33.568Z,11.70
2019-04-10T01:23:03.569Z,11.70
2019-04-10T01:25:32.963Z,11.60
2019-04-10T01:28:02.684Z,11.60
2019-04-10T01:30:32.736Z,11.60
2019-04-10T01:33:01.724Z,11.60
2019-04-10T01:35:30.606Z,11.60
2019-04-10T01:38:01.459Z,11.60
2019-04-10T01:40:30.971Z,11.50
2019-04-10T01:43:08.215Z,11.50
2019-04-10T01:45:30.871Z,11.50
2019-04-10T01:47:59.741Z,11.50
2019-04-10T01:50:28.666Z,11.60
2019-04-10T01:52:57.821Z,11.50
2019-04-10T01:55:29.854Z,11.50
2019-04-10T01:57:58.966Z,11.50
2019-04-10T02:00:28.503Z,11.50
2019-04-10T02:02:57.979Z,11.40
2019-04-10T02:05:28.191Z,11.30
2019-04-10T02:08:04.284Z,11.40
2019-04-10T02:10:28.119Z,11.60
2019-04-10T02:12:57.118Z,11.40
2019-04-10T02:15:26.308Z,11.60
2019-04-10T02:17:55.421Z,11.40
2019-04-10T02:20:25.002Z,11.40
2019-04-10T02:22:54.626Z,11.40
2019-04-10T02:25:24.019Z,11.30
2019-04-10T02:27:52.953Z,11.30
2019-04-10T02:30:23.885Z,11.40
2019-04-10T02:32:54.570Z,11.40
2019-04-10T02:35:24.555Z,11.40
2019-04-10T02:37:56.071Z,11.40
2019-04-10T02:40:25.534Z,11.30
2019-04-10T02:42:54.809Z,11.40
2019-04-10T02:45:24.243Z,11.50
2019-04-10T02:47:54.924Z,11.50
2019-04-10T02:50:25.295Z,11.40
2019-04-10T02:52:55.038Z,11.40
2019-04-10T02:55:25.067Z,11.30
2019-04-10T02:57:55.880Z,11.30
2019-04-10T03:00:26.454Z,11.20
2019-04-10T03:02:57.141Z,11.20
2019-04-10T03:05:27.301Z,11.20
2019-04-10T03:07:58.190Z,11.20
2019-04-10T03:10:38.253Z,11.10
2019-04-10T03:13:00.607Z,11.10
2019-04-10T03:15:31.523Z,11.10
2019-04-10T03:18:00.792Z,11.10
2019-04-10T03:20:30.151Z,11.00
2019-04-10T03:22:59.526Z,11.00
2019-04-10T03:25:28.876Z,10.90
2019-04-10T03:27:58.671Z,10.90
2019-04-10T03:30:29.482Z,10.90
2019-04-10T03:33:21.799Z,10.80
2019-04-10T03:35:51.440Z,10.80
2019-04-10T03:38:21.578Z,10.80
2019-04-10T03:40:51.430Z,10.80
2019-04-10T03:43:21.479Z,10.80
2019-04-10T03:45:50.826Z,10.70
2019-04-10T03:48:20.181Z,10.70
2019-04-10T03:50:50.152Z,10.70
2019-04-10T03:53:20.226Z,10.70
2019-04-10T03:55:49.418Z,10.70
2019-04-10T03:58:20.021Z,10.60
2019-04-10T04:00:48.878Z,10.60
2019-04-10T04:03:18.373Z,10.60
2019-04-10T04:05:47.329Z,10.60
2019-04-10T04:08:16.331Z,10.50
2019-04-10T04:10:45.329Z,10.50
2019-04-10T04:13:15.253Z,10.60
2019-04-10T04:15:44.511Z,10.60
2019-04-10T04:18:13.397Z,10.60
2019-04-10T04:20:43.310Z,10.60
2019-04-10T04:23:12.283Z,10.70
2019-04-10T04:25:41.232Z,10.70
2019-04-10T04:28:11.223Z,10.70
2019-04-10T04:30:41.924Z,10.70
2019-04-10T04:33:11.251Z,10.70
2019-04-10T04:35:40.850Z,10.70
2019-04-10T04:38:09.973Z,10.60
2019-04-10T04:40:38.909Z,10.60
2019-04-10T04:43:07.950Z,10.50
2019-04-10T04:45:37.754Z,10.60
2019-04-10T04:48:07.757Z,10.60
2019-04-10T04:50:36.809Z,10.60
2019-04-10T04:53:06.669Z,10.60
2019-04-10T04:55:35.704Z,10.60
2019-04-10T04:58:04.729Z,10.60
2019-04-10T05:00:34.744Z,10.60
2019-04-10T05:03:04.012Z,10.60
2019-04-10T05:05:33.614Z,10.70
2019-04-10T05:08:05.129Z,10.70
2019-04-10T05:10:35.691Z,10.70
2019-04-10T05:13:04.493Z,10.80
2019-04-10T05:15:33.429Z,10.70
2019-04-10T05:18:02.356Z,10.70
2019-04-10T05:20:42.199Z,10.70
2019-04-10T05:23:02.449Z,10.70
2019-04-10T05:25:31.592Z,10.70
2019-04-10T05:28:01.564Z,10.70
2019-04-10T05:30:31.363Z,10.70
2019-04-10T05:33:00.539Z,10.70
2019-04-10T05:35:29.858Z,10.70
2019-04-10T05:37:59.142Z,10.70
2019-04-10T05:40:28.091Z,10.60
2019-04-10T05:42:57.462Z,10.60
2019-04-10T05:45:27.650Z,10.60
2019-04-10T05:47:56.967Z,10.70
2019-04-10T05:50:26.169Z,10.70
2019-04-10T05:52:55.920Z,10.60
2019-04-10T05:55:25.051Z,10.60
2019-04-10T05:57:54.005Z,10.70
2019-04-10T06:00:24.913Z,10.70
2019-04-10T06:02:54.261Z,10.60
2019-04-10T06:05:24.341Z,10.70
2019-04-10T06:07:53.855Z,10.60
2019-04-10T06:10:24.556Z,10.60
2019-04-10T06:12:54.956Z,10.60
2019-04-10T06:15:24.161Z,10.70
2019-04-10T06:17:54.427Z,10.70
2019-04-10T06:20:25.003Z,10.60
2019-04-10T06:22:54.906Z,10.60
2019-04-10T06:25:24.893Z,10.70
2019-04-10T06:27:54.406Z,10.70
2019-04-10T06:30:23.872Z,10.70
2019-04-10T06:32:53.839Z,10.70
2019-04-10T06:35:24.091Z,10.80
2019-04-10T06:37:53.167Z,10.80
2019-04-10T06:40:24.174Z,10.80
2019-04-10T06:42:54.698Z,10.70
2019-04-10T06:45:24.053Z,10.80
2019-04-10T06:47:53.369Z,10.90
2019-04-10T06:50:23.162Z,10.90
2019-04-10T06:52:52.233Z,10.90
2019-04-10T06:55:21.615Z,10.90
2019-04-10T06:57:55.852Z,10.90
2019-04-10T07:00:22.905Z,10.90
2019-04-10T07:02:52.706Z,11.00
2019-04-10T07:05:21.971Z,11.00
2019-04-10T07:07:56.148Z,11.10
2019-04-10T07:10:28.550Z,11.20
2019-04-10T07:12:53.381Z,11.30
2019-04-10T07:15:23.991Z,11.40
2019-04-10T07:17:53.463Z,11.40
2019-04-10T07:20:22.609Z,11.50
2019-04-10T07:22:51.859Z,11.50
2019-04-10T07:25:21.774Z,11.50
2019-04-10T07:27:52.104Z,11.60
2019-04-10T07:30:24.120Z,11.60
2019-04-10T07:32:53.068Z,11.60
2019-04-10T07:35:23.585Z,11.60
2019-04-10T07:37:54.347Z,11.50
2019-04-10T07:40:23.401Z,11.50
2019-04-10T07:42:52.563Z,11.40
2019-04-10T07:45:26.335Z,11.50
2019-04-10T07:47:53.860Z,11.50
2019-04-10T07:50:22.866Z,11.40
2019-04-10T07:52:52.105Z,11.50
2019-04-10T07:55:23.582Z,11.50
2019-04-10T07:57:53.211Z,11.50
2019-04-10T08:00:22.389Z,11.60
2019-04-10T08:02:51.309Z,11.60
2019-04-10T08:05:20.984Z,11.60
2019-04-10T08:07:52.751Z,11.60
2019-04-10T08:10:21.172Z,11.70
2019-04-10T08:12:53.650Z,11.70
2019-04-10T08:15:21.043Z,11.80
2019-04-10T08:17:51.275Z,11.80
2019-04-10T08:20:20.464Z,11.80
2019-04-10T08:22:49.376Z,11.80
2019-04-10T08:25:18.737Z,11.80
2019-04-10T08:27:48.088Z,11.90
2019-04-10T08:30:17.501Z,11.90
2019-04-10T08:32:56.060Z,12.00
2019-04-10T08:35:18.101Z,12.10
2019-04-10T08:37:46.985Z,12.10
2019-04-10T08:40:17.129Z,12.00
2019-04-10T08:42:47.595Z,12.00
2019-04-10T08:45:17.234Z,12.10
2019-04-10T08:47:46.251Z,12.20
2019-04-10T08:50:15.290Z,12.20
2019-04-10T08:52:44.602Z,12.10
2019-04-10T08:55:15.675Z,12.20
2019-04-10T08:57:45.810Z,12.30
2019-04-10T09:00:16.479Z,12.30
2019-04-10T09:02:46.429Z,12.40
2019-04-10T09:05:16.047Z,12.50
2019-04-10T09:07:44.969Z,12.50
2019-04-10T09:10:14.562Z,12.50
2019-04-10T09:12:43.833Z,12.60
2019-04-10T09:15:13.882Z,12.70
2019-04-10T09:17:43.804Z,12.80
2019-04-10T09:20:14.204Z,12.90
2019-04-10T09:23:08.553Z,13.00
2019-04-10T09:25:16.034Z,13.00
2019-04-10T09:27:44.709Z,13.00
2019-04-10T09:30:13.908Z,13.10
2019-04-10T09:32:43.049Z,13.20
2019-04-10T09:35:12.338Z,13.30
2019-04-10T09:37:42.060Z,13.20
2019-04-10T09:40:12.363Z,13.30
2019-04-10T09:42:41.751Z,13.20
2019-04-10T09:45:11.520Z,13.10
2019-04-10T09:47:41.669Z,13.20
2019-04-10T09:50:11.428Z,13.30
2019-04-10T09:52:40.449Z,13.40
2019-04-10T09:55:09.759Z,13.50
2019-04-10T09:57:38.831Z,13.50
2019-04-10T10:00:08.021Z,13.60
2019-04-10T10:02:37.987Z,13.50
2019-04-10T10:05:08.361Z,13.50
2019-04-10T10:07:37.552Z,13.50
2019-04-10T10:10:07.236Z,13.50
2019-04-10T10:12:36.480Z,13.50
2019-04-10T10:15:07.257Z,13.50
2019-04-10T10:17:37.073Z,13.60
2019-04-10T10:20:07.938Z,13.60
2019-04-10T10:22:37.247Z,13.60
2019-04-10T10:25:07.153Z,13.60
2019-04-10T10:27:36.476Z,13.70
2019-04-10T10:30:07.143Z,13.60
2019-04-10T10:32:37.162Z,13.70
2019-04-10T10:35:07.146Z,13.70
2019-04-10T10:37:36.646Z,13.70
2019-04-10T10:40:08.317Z,13.80
2019-04-10T10:42:39.392Z,13.80
2019-04-10T10:45:08.789Z,13.80
2019-04-10T10:47:38.056Z,13.80
2019-04-10T10:50:08.660Z,13.80
2019-04-10T10:52:38.015Z,13.70
2019-04-10T10:55:07.727Z,13.70
2019-04-10T10:57:37.499Z,13.80
2019-04-10T11:00:08.189Z,13.90
2019-04-10T11:02:38.020Z,14.00
2019-04-10T11:05:07.314Z,14.00
2019-04-10T11:07:36.697Z,14.10
2019-04-10T11:10:06.942Z,14.10
2019-04-10T11:12:38.384Z,14.10
2019-04-10T11:15:07.974Z,14.00
2019-04-10T11:17:38.427Z,13.90
2019-04-10T11:20:10.076Z,13.90
2019-04-10T11:22:39.836Z,13.80
2019-04-10T11:25:11.946Z,13.70
2019-04-10T11:27:42.049Z,13.80
2019-04-10T11:30:12.636Z,13.90
2019-04-10T11:32:42.312Z,13.90
2019-04-10T11:35:13.134Z,14.00
2019-04-10T11:37:46.842Z,13.90
2019-04-10T11:40:15.819Z,13.90
2019-04-10T11:42:44.731Z,13.90
2019-04-10T11:45:17.013Z,13.90
2019-04-10T11:47:47.476Z,13.90
2019-04-10T11:50:18.915Z,13.90
2019-04-10T11:52:52.421Z,13.80
2019-04-10T11:55:21.323Z,13.90
2019-04-10T11:57:51.433Z,13.80
2019-04-10T12:00:33.270Z,13.90
2019-04-10T12:03:04.613Z,13.90
2019-04-10T12:05:36.641Z,14.00
2019-04-10T12:08:28.407Z,14.00
2019-04-10T12:13:06.385Z,14.00
2019-04-10T12:15:36.438Z,14.00
2019-04-10T12:18:06.577Z,14.10
2019-04-10T12:20:35.729Z,14.10
2019-04-10T12:23:04.992Z,14.10
2019-04-10T12:25:35.029Z,14.10
2019-04-10T12:28:05.405Z,14.10
2019-04-10T12:30:35.296Z,14.10
2019-04-10T12:33:05.407Z,14.10
2019-04-10T12:35:35.887Z,14.10
2019-04-10T12:38:08.121Z,14.10
2019-04-10T12:40:37.956Z,14.10
2019-04-10T12:43:06.711Z,14.10
2019-04-10T12:45:36.013Z,14.10
2019-04-10T12:48:06.147Z,14.10
2019-04-10T12:50:35.208Z,14.10
2019-04-10T12:53:05.274Z,14.10
2019-04-10T12:55:34.708Z,14.10
2019-04-10T12:58:07.647Z,14.10
2019-04-10T13:00:34.413Z,14.10
2019-04-10T13:03:05.020Z,14.10
2019-04-10T13:05:34.573Z,14.10
2019-04-10T13:08:15.856Z,14.10
2019-04-10T13:10:35.769Z,14.10
2019-04-10T13:13:06.048Z,14.10
2019-04-10T13:15:35.251Z,14.10
2019-04-10T13:18:04.534Z,14.10
2019-04-10T13:20:33.770Z,14.20
2019-04-10T13:23:02.622Z,14.10
2019-04-10T13:25:32.428Z,14.10
2019-04-10T13:28:01.762Z,14.00
2019-04-10T13:30:40.397Z,14.00
2019-04-10T13:33:02.560Z,14.10
2019-04-10T13:35:32.452Z,14.10
2019-04-10T13:38:01.607Z,14.10
2019-04-10T13:40:30.650Z,14.10
2019-04-10T13:42:59.824Z,14.10
2019-04-10T13:45:29.057Z,14.00
2019-04-10T13:47:58.820Z,14.00
2019-04-10T13:50:27.932Z,13.90
2019-04-10T13:52:57.508Z,13.90
2019-04-10T13:55:26.845Z,13.80
2019-04-10T13:57:55.786Z,13.80
2019-04-10T14:00:34.226Z,13.70
2019-04-10T14:03:03.885Z,13.70
2019-04-10T14:05:33.994Z,13.70
2019-04-10T14:08:03.584Z,13.70
2019-04-10T14:10:32.640Z,13.70
2019-04-10T14:13:01.610Z,13.70
2019-04-10T14:15:31.658Z,13.70
2019-04-10T14:18:01.861Z,13.70
2019-04-10T14:20:31.473Z,13.70
2019-04-10T14:23:12.544Z,13.70
2019-04-10T14:26:04.440Z,13.70
2019-04-10T14:28:33.825Z,13.70
2019-04-10T14:31:07.662Z,13.70
2019-04-10T14:33:36.605Z,13.70
2019-04-10T14:36:05.920Z,13.70
2019-04-10T14:38:35.278Z,13.70
2019-04-10T14:41:05.238Z,13.70
2019-04-10T14:43:34.737Z,13.70
2019-04-10T14:46:06.289Z,13.70
2019-04-10T14:48:36.148Z,13.70
2019-04-10T14:51:06.134Z,13.80
2019-04-10T14:53:35.330Z,13.80
2019-04-10T14:56:06.757Z,13.80
2019-04-10T14:58:36.968Z,13.90
2019-04-10T15:01:08.170Z,13.90
2019-04-10T15:03:36.921Z,13.90
2019-04-10T15:06:07.041Z,13.80
2019-04-10T15:08:36.110Z,13.80
2019-04-10T15:11:06.692Z,13.80
2019-04-10T15:13:36.119Z,13.90
2019-04-10T15:16:05.334Z,13.90
2019-04-10T15:18:35.058Z,13.90
2019-04-10T15:21:04.848Z,14.00
2019-04-10T15:23:33.941Z,14.00
2019-04-10T15:26:03.871Z,14.00
2019-04-10T15:28:33.924Z,14.00
2019-04-10T15:31:03.424Z,14.00
2019-04-10T15:33:32.842Z,14.00
2019-04-10T15:36:01.993Z,14.00
2019-04-10T15:38:31.008Z,14.10
2019-04-10T15:41:00.901Z,14.00
2019-04-10T15:43:29.888Z,14.10
2019-04-10T15:45:58.746Z,14.10
2019-04-10T15:48:27.606Z,14.00
2019-04-10T15:50:56.551Z,14.10
2019-04-10T15:53:26.521Z,14.00
2019-04-10T15:55:55.895Z,13.90
2019-04-10T15:58:25.690Z,13.90
2019-04-10T16:00:54.797Z,13.90
2019-04-10T16:03:24.257Z,13.90
2019-04-10T16:05:53.591Z,13.80
2019-04-10T16:08:23.861Z,13.70
2019-04-10T16:11:01.793Z,13.70
2019-04-10T16:13:38.803Z,13.70
2019-04-10T16:16:25.817Z,13.60
2019-04-10T16:19:02.291Z,13.60
2019-04-10T16:21:31.874Z,13.60
2019-04-10T16:24:05.321Z,13.60
2019-04-10T16:26:34.266Z,13.50
2019-04-10T16:29:04.043Z,13.40
2019-04-10T16:31:32.928Z,13.40
2019-04-10T16:34:01.796Z,13.40
2019-04-10T16:36:31.081Z,13.30
2019-04-10T16:39:00.889Z,13.30
2019-04-10T16:41:31.149Z,13.30
2019-04-10T16:44:00.525Z,13.30
2019-04-10T16:46:31.997Z,13.30
2019-04-10T16:49:01.222Z,13.30
2019-04-10T16:51:30.238Z,13.20
2019-04-10T16:54:00.147Z,13.10
2019-04-10T16:56:29.748Z,13.00
2019-04-10T16:58:58.742Z,13.00
2019-04-10T17:01:28.846Z,13.00
2019-04-10T17:03:58.615Z,13.00
2019-04-10T17:06:28.289Z,12.90
2019-04-10T17:08:58.487Z,12.80
2019-04-10T17:11:27.509Z,12.70
2019-04-10T17:13:57.182Z,12.70
2019-04-10T17:16:26.261Z,12.70
2019-04-10T17:18:55.508Z,12.60
2019-04-10T17:21:26.620Z,12.60
2019-04-10T17:23:56.678Z,12.60
2019-04-10T17:26:26.687Z,12.60
2019-04-10T17:28:56.643Z,12.50
2019-04-10T17:31:26.639Z,12.50
2019-04-10T17:33:56.627Z,12.50
2019-04-10T17:36:25.770Z,12.50
2019-04-10T17:38:55.246Z,12.50
2019-04-10T17:41:25.896Z,12.40
2019-04-10T17:43:54.995Z,12.40
2019-04-10T17:46:24.886Z,12.40
2019-04-10T17:48:54.193Z,12.30
2019-04-10T17:51:23.787Z,12.30
2019-04-10T17:53:53.799Z,12.20
2019-04-10T17:56:22.842Z,12.20
2019-04-10T17:58:52.054Z,12.20
2019-04-10T18:01:22.969Z,12.20
2019-04-10T18:03:57.190Z,12.10
2019-04-10T18:06:23.702Z,12.10
2019-04-10T18:08:53.539Z,12.00
2019-04-10T18:11:22.952Z,12.00
2019-04-10T18:13:53.062Z,11.90
2019-04-10T18:16:22.362Z,11.90
2019-04-10T18:18:51.755Z,11.90
2019-04-10T18:21:21.134Z,11.80
2019-04-10T18:23:49.976Z,11.80
2019-04-10T18:26:20.668Z,11.80
2019-04-10T18:28:49.982Z,11.80
2019-04-10T18:31:18.848Z,11.80
2019-04-10T18:33:48.951Z,11.90
2019-04-10T18:36:18.017Z,11.80
2019-04-10T18:38:47.913Z,11.80
2019-04-10T18:41:17.852Z,11.70
2019-04-10T18:43:46.934Z,11.70
2019-04-10T18:46:18.272Z,11.70
2019-04-10T18:48:47.178Z,11.60
2019-04-10T18:51:18.048Z,11.60
2019-04-10T18:53:49.258Z,11.60
2019-04-10T18:56:18.822Z,11.50
2019-04-10T18:59:00.632Z,11.50
2019-04-10T19:01:43.241Z,11.50
2019-04-10T19:04:24.598Z,11.50
2019-04-10T19:07:02.453Z,11.40
2019-04-10T19:09:33.880Z,11.40
2019-04-10T19:12:02.901Z,11.30
2019-04-10T19:14:35.531Z,11.30
2019-04-10T19:17:02.785Z,11.20
2019-04-10T19:19:32.495Z,11.20
2019-04-10T19:22:04.230Z,11.10
2019-04-10T19:24:34.056Z,11.10
2019-04-10T19:27:04.116Z,11.10
2019-04-10T19:29:33.798Z,11.10
2019-04-10T19:32:04.947Z,11.10
2019-04-10T19:34:34.181Z,11.10
2019-04-10T19:37:04.055Z,11.10
2019-04-10T19:39:34.116Z,11.00
2019-04-10T19:42:04.872Z,11.00
2019-04-10T19:44:35.146Z,11.00
2019-04-10T19:47:04.422Z,11.00
2019-04-10T19:49:33.277Z,11.00
2019-04-10T19:52:02.407Z,11.00
2019-04-10T19:54:31.675Z,11.10
2019-04-10T19:57:01.307Z,11.10
2019-04-10T19:59:31.604Z,11.10
2019-04-10T20:02:00.682Z,11.00
2019-04-10T20:04:29.709Z,10.90
2019-04-10T20:06:59.125Z,10.90
2019-04-10T20:09:28.479Z,10.90
2019-04-10T20:11:57.829Z,10.80
2019-04-10T20:14:26.986Z,10.80
2019-04-10T20:16:55.965Z,10.80
2019-04-10T20:19:25.022Z,10.80
2019-04-10T20:21:54.512Z,10.80
2019-04-10T20:24:23.562Z,10.70
2019-04-10T20:26:53.773Z,10.70
2019-04-10T20:29:23.276Z,10.70
2019-04-10T20:31:53.344Z,10.70
2019-04-10T20:34:23.279Z,10.60
2019-04-10T20:36:53.292Z,10.60
2019-04-10T20:39:23.241Z,10.50
2019-04-10T20:41:56.294Z,10.50
2019-04-10T20:44:23.477Z,10.50
2019-04-10T20:46:52.766Z,10.50
2019-04-10T20:49:22.510Z,10.50
2019-04-10T20:51:51.597Z,10.50
2019-04-10T20:54:20.912Z,10.50
2019-04-10T20:56:50.752Z,10.50
2019-04-10T20:59:19.788Z,10.50
2019-04-10T21:01:49.089Z,10.40
2019-04-10T21:04:18.301Z,10.40
2019-04-10T21:06:48.190Z,10.40
2019-04-10T21:09:17.251Z,10.40
2019-04-10T21:11:58.062Z,10.40
2019-04-10T21:14:16.929Z,10.40
2019-04-10T21:16:45.870Z,10.40
2019-04-10T21:19:14.821Z,10.40
2019-04-10T21:21:44.425Z,10.40
2019-04-10T21:24:13.606Z,10.40
2019-04-10T21:26:44.434Z,10.40
2019-04-10T21:29:18.611Z,10.40
2019-04-10T21:32:03.214Z,10.30
2019-04-10T21:34:36.922Z,10.30
2019-04-10T21:37:06.155Z,10.40
2019-04-10T21:39:36.057Z,10.30
2019-04-10T21:42:16.066Z,10.30
2019-04-10T21:44:37.081Z,10.40
2019-04-10T21:47:06.197Z,10.40
2019-04-10T21:49:35.954Z,10.30
2019-04-10T21:52:05.716Z,10.40
2019-04-10T21:54:34.756Z,10.40
2019-04-10T21:57:03.970Z,10.50
2019-04-10T21:59:32.925Z,10.40
2019-04-10T22:02:02.749Z,10.40
2019-04-10T22:04:32.897Z,10.50
2019-04-10T22:07:20.382Z,10.40
2019-04-10T22:09:56.565Z,10.40
2019-04-10T22:12:31.715Z,10.30
2019-04-10T22:15:00.186Z,10.30
2019-04-10T22:17:29.571Z,10.30
2019-04-10T22:19:59.229Z,10.30
2019-04-10T22:22:28.862Z,10.30
2019-04-10T22:24:58.968Z,10.20
2019-04-10T22:27:28.128Z,10.20
2019-04-10T22:29:57.058Z,10.20
2019-04-10T22:32:26.927Z,10.20
2019-04-10T22:34:56.975Z,10.20
2019-04-10T22:37:29.787Z,10.20
2019-04-10T22:40:02.454Z,10.10
2019-04-10T22:42:44.024Z,10.10
2019-04-10T22:45:14.393Z,10.10
2019-04-10T22:47:43.534Z,10.10
2019-04-10T22:50:12.793Z,10.10
2019-04-10T22:52:42.255Z,10.10
2019-04-10T22:55:11.314Z,10.10
2019-04-10T22:57:41.536Z,10.10
2019-04-10T23:00:13.664Z,10.00
2019-04-10T23:02:42.824Z,10.00
2019-04-10T23:05:12.036Z,10.00
2019-04-10T23:07:41.075Z,10.00
2019-04-10T23:10:13.163Z,10.00
2019-04-10T23:12:52.262Z,9.90
2019-04-10T23:15:15.419Z,9.90
2019-04-10T23:17:45.229Z,9.90
2019-04-10T23:20:14.537Z,9.80
2019-04-10T23:22:43.539Z,9.80
2019-04-10T23:25:13.079Z,9.80
2019-04-10T23:27:42.144Z,9.80
2019-04-10T23:30:15.549Z,9.80
2019-04-10T23:32:45.733Z,9.80
2019-04-10T23:35:14.949Z,9.70
2019-04-10T23:37:44.633Z,9.70
2019-04-10T23:40:14.253Z,9.70
2019-04-10T23:42:44.096Z,9.70
2019-04-10T23:45:13.531Z,9.70
2019-04-10T23:47:42.710Z,9.60
2019-04-10T23:50:12.171Z,9.60
2019-04-10T23:52:42.228Z,9.70
2019-04-10T23:55:11.249Z,9.60
2019-04-10T23:57:41.132Z,9.70
